createdAt,value
2022-08-24T00:01:57.981Z,17.86
2022-08-24T00:04:26.719Z,17.82
2022-08-24T00:06:56.360Z,17.83
2022-08-24T00:09:25.970Z,17.81
2022-08-24T00:11:53.865Z,17.77
2022-08-24T00:14:21.856Z,17.77
2022-08-24T00:16:49.906Z,17.71
2022-08-24T00:19:18.752Z,17.72
2022-08-24T00:21:46.786Z,17.69
2022-08-24T00:24:14.728Z,17.67
2022-08-24T00:26:45.963Z,17.65
2022-08-24T00:29:14.152Z,17.60
2022-08-24T00:31:42.164Z,17.58
2022-08-24T00:34:10.556Z,17.57
2022-08-24T00:36:38.442Z,17.49
2022-08-24T00:39:08.024Z,17.45
2022-08-24T00:41:39.207Z,17.43
2022-08-24T00:44:09.839Z,17.41
2022-08-24T00:46:44.674Z,17.40
2022-08-24T00:49:19.675Z,17.39
2022-08-24T00:51:55.570Z,17.32
2022-08-24T00:54:26.893Z,17.30
2022-08-24T00:56:59.710Z,17.28
2022-08-24T00:59:33.522Z,17.26
2022-08-24T01:02:15.548Z,17.22
2022-08-24T01:04:50.504Z,17.15
2022-08-24T01:07:18.587Z,17.13
2022-08-24T01:09:46.996Z,17.07
2022-08-24T01:12:14.963Z,17.06
2022-08-24T01:14:45.094Z,17.06
2022-08-24T01:17:33.039Z,17.02
2022-08-24T01:20:05.492Z,17.02
2022-08-24T01:22:50.923Z,16.99
2022-08-24T01:25:21.386Z,16.97
2022-08-24T01:27:51.771Z,16.92
2022-08-24T01:30:21.953Z,16.94
2022-08-24T01:33:01.460Z,16.88
2022-08-24T01:35:31.381Z,16.87
2022-08-24T01:38:03.331Z,16.82
2022-08-24T01:40:36.671Z,16.81
2022-08-24T01:43:07.367Z,16.80
2022-08-24T01:45:35.928Z,16.80
2022-08-24T01:48:06.052Z,16.74
2022-08-24T01:50:35.012Z,16.73
2022-08-24T01:53:05.943Z,16.67
2022-08-24T01:55:36.889Z,16.60
2022-08-24T01:58:05.455Z,16.60
2022-08-24T02:00:35.128Z,16.65
2022-08-24T02:03:03.702Z,16.64
2022-08-24T02:05:31.899Z,16.63
2022-08-24T02:08:00.032Z,16.64
2022-08-24T02:10:28.528Z,16.64
2022-08-24T02:12:59.402Z,16.62
2022-08-24T02:15:30.269Z,16.60
2022-08-24T02:17:59.060Z,16.58
2022-08-24T02:20:28.715Z,16.55
2022-08-24T02:22:57.078Z,16.49
2022-08-24T02:25:26.363Z,16.41
2022-08-24T02:27:54.456Z,16.38
2022-08-24T02:30:23.692Z,16.41
2022-08-24T02:32:51.587Z,16.35
2022-08-24T02:35:19.951Z,16.35
2022-08-24T02:37:49.747Z,16.37
2022-08-24T02:40:18.241Z,16.33
2022-08-24T02:42:46.993Z,16.30
2022-08-24T02:45:15.420Z,16.24
2022-08-24T02:47:45.185Z,16.21
2022-08-24T02:50:15.593Z,16.25
2022-08-24T02:52:45.051Z,16.19
2022-08-24T02:55:15.208Z,16.19
2022-08-24T02:57:43.293Z,16.18
2022-08-24T03:00:15.619Z,16.13
2022-08-24T03:02:53.198Z,16.11
2022-08-24T03:05:23.511Z,16.08
2022-08-24T03:07:52.280Z,16.09
2022-08-24T03:10:21.279Z,16.05
2022-08-24T03:12:49.695Z,16.05
2022-08-24T03:15:22.496Z,16.06
2022-08-24T03:17:52.263Z,16.06
2022-08-24T03:20:22.468Z,16.05
2022-08-24T03:22:51.333Z,16.01
2022-08-24T03:25:20.825Z,15.98
2022-08-24T03:27:48.837Z,15.95
2022-08-24T03:30:19.725Z,15.89
2022-08-24T03:32:50.393Z,15.88
2022-08-24T03:35:21.981Z,15.90
2022-08-24T03:37:50.872Z,15.86
2022-08-24T03:40:23.110Z,15.82
2022-08-24T03:42:55.521Z,15.78
2022-08-24T03:45:24.110Z,15.73
2022-08-24T03:47:53.227Z,15.74
2022-08-24T03:50:24.660Z,15.74
2022-08-24T03:52:53.229Z,15.72
2022-08-24T03:55:21.715Z,15.71
2022-08-24T03:57:50.074Z,15.70
2022-08-24T04:00:18.560Z,15.69
2022-08-24T04:02:56.332Z,15.66
2022-08-24T04:05:27.651Z,15.65
2022-08-24T04:08:02.864Z,15.60
2022-08-24T04:10:30.862Z,15.58
2022-08-24T04:13:01.424Z,15.55
2022-08-24T04:15:32.172Z,15.53
2022-08-24T04:18:00.213Z,15.51
2022-08-24T04:20:29.568Z,15.52
2022-08-24T04:22:57.626Z,15.48
2022-08-24T04:25:25.819Z,15.50
2022-08-24T04:27:53.754Z,15.42
2022-08-24T04:30:24.691Z,15.37
2022-08-24T04:33:15.192Z,15.32
2022-08-24T04:35:48.309Z,15.31
2022-08-24T04:38:17.884Z,15.32
2022-08-24T04:41:00.216Z,15.32
2022-08-24T04:43:28.666Z,15.32
2022-08-24T04:45:59.320Z,15.36
2022-08-24T04:48:27.352Z,15.34
2022-08-24T04:50:56.693Z,15.33
2022-08-24T04:53:24.550Z,15.31
2022-08-24T04:55:54.072Z,15.38
2022-08-24T04:58:22.200Z,15.43
2022-08-24T05:00:50.468Z,15.46
2022-08-24T05:03:19.303Z,15.50
2022-08-24T05:05:50.186Z,15.49
2022-08-24T05:08:20.918Z,15.52
2022-08-24T05:10:51.394Z,15.58
2022-08-24T05:13:21.311Z,15.59
2022-08-24T05:15:50.169Z,15.59
2022-08-24T05:18:18.704Z,15.65
2022-08-24T05:20:48.845Z,15.69
2022-08-24T05:23:18.883Z,15.74
2022-08-24T05:25:48.571Z,15.75
2022-08-24T05:28:17.931Z,15.78
2022-08-24T05:30:45.948Z,15.79
2022-08-24T05:33:14.380Z,15.88
2022-08-24T05:35:43.884Z,15.93
2022-08-24T05:38:12.651Z,15.98
2022-08-24T05:40:41.285Z,16.06
2022-08-24T05:43:11.362Z,16.10
2022-08-24T05:45:43.375Z,16.16
2022-08-24T05:48:12.343Z,16.23
2022-08-24T05:51:03.230Z,16.32
2022-08-24T05:53:35.562Z,16.35
2022-08-24T05:56:05.646Z,16.40
2022-08-24T05:58:35.289Z,16.44
2022-08-24T06:01:07.972Z,16.42
2022-08-24T06:03:36.024Z,16.48
2022-08-24T06:06:08.591Z,16.56
2022-08-24T06:08:41.061Z,16.60
2022-08-24T06:11:11.232Z,16.67
2022-08-24T06:13:41.065Z,16.76
2022-08-24T06:16:21.842Z,16.83
2022-08-24T06:18:52.277Z,16.88
2022-08-24T06:21:23.384Z,16.96
2022-08-24T06:23:52.287Z,17.02
2022-08-24T06:26:51.276Z,17.10
2022-08-24T06:29:21.977Z,17.20
2022-08-24T06:31:56.377Z,17.34
2022-08-24T06:34:27.003Z,17.40
2022-08-24T06:36:55.164Z,17.43
2022-08-24T06:39:26.402Z,17.56
2022-08-24T06:41:56.411Z,17.61
2022-08-24T06:44:33.526Z,17.67
2022-08-24T06:47:14.619Z,17.79
2022-08-24T06:49:42.802Z,17.85
2022-08-24T06:52:11.499Z,17.91
2022-08-24T06:54:40.164Z,18.00
2022-08-24T06:57:08.433Z,18.10
2022-08-24T06:59:37.679Z,18.21
2022-08-24T07:03:20.921Z,18.33
2022-08-24T07:05:58.279Z,18.46
2022-08-24T07:08:53.290Z,18.56
2022-08-24T07:11:21.994Z,18.71
2022-08-24T07:13:50.886Z,18.82
2022-08-24T07:16:22.397Z,18.93
2022-08-24T07:18:55.416Z,19.09
2022-08-24T07:21:23.946Z,19.16
2022-08-24T07:23:56.941Z,19.28
2022-08-24T07:26:28.202Z,19.34
2022-08-24T07:29:04.901Z,19.42
2022-08-24T07:31:40.741Z,19.54
2022-08-24T07:34:23.456Z,19.66
2022-08-24T07:36:52.427Z,19.74
2022-08-24T07:39:20.767Z,19.82
2022-08-24T07:42:11.432Z,19.93
2022-08-24T07:44:37.224Z,20.03
2022-08-24T07:47:27.300Z,20.12
2022-08-24T07:49:55.564Z,20.28
2022-08-24T07:52:23.444Z,20.35
2022-08-24T07:54:52.097Z,20.47
2022-08-24T07:57:20.473Z,20.48
2022-08-24T07:59:48.687Z,20.58
2022-08-24T08:02:18.371Z,20.73
2022-08-24T08:04:50.039Z,20.83
2022-08-24T08:07:19.568Z,20.97
2022-08-24T08:09:50.728Z,21.05
2022-08-24T08:12:19.284Z,21.19
2022-08-24T08:14:57.407Z,21.30
2022-08-24T08:17:26.935Z,21.40
2022-08-24T08:19:55.328Z,21.68
2022-08-24T08:22:42.380Z,21.89
2022-08-24T08:25:29.117Z,21.99
2022-08-24T08:28:04.274Z,22.14
2022-08-24T08:30:42.014Z,22.31
2022-08-24T08:33:11.302Z,22.44
2022-08-24T08:35:40.657Z,22.42
2022-08-24T08:38:09.539Z,22.42
2022-08-24T08:40:55.374Z,22.56
2022-08-24T08:43:38.338Z,22.68
2022-08-24T08:46:22.355Z,22.74
2022-08-24T08:49:42.954Z,22.88
2022-08-24T08:53:07.828Z,23.03
2022-08-24T08:55:43.286Z,23.03
2022-08-24T08:58:24.723Z,22.99
2022-08-24T09:01:04.859Z,23.09
2022-08-24T09:03:56.986Z,23.29
2022-08-24T09:07:14.419Z,23.27
2022-08-24T09:10:04.539Z,23.42
2022-08-24T09:12:52.427Z,23.38
2022-08-24T09:15:46.767Z,23.45
2022-08-24T09:18:30.780Z,23.50
2022-08-24T09:21:15.188Z,23.53
2022-08-24T09:23:54.631Z,23.59
2022-08-24T09:26:27.688Z,23.59
2022-08-24T09:29:10.793Z,23.78
2022-08-24T09:32:01.962Z,23.85
2022-08-24T09:34:38.191Z,23.93
2022-08-24T09:37:26.239Z,23.95
2022-08-24T09:40:02.551Z,23.92
2022-08-24T09:43:01.087Z,23.99
2022-08-24T09:46:01.223Z,24.08
2022-08-24T09:49:13.615Z,24.12
2022-08-24T09:52:04.220Z,24.26
2022-08-24T09:55:09.288Z,24.27
2022-08-24T09:58:01.839Z,24.37
2022-08-24T10:00:35.124Z,24.30
2022-08-24T10:03:26.253Z,24.41
2022-08-24T10:06:21.704Z,24.42
2022-08-24T10:09:13.471Z,24.51
2022-08-24T10:11:52.924Z,24.58
2022-08-24T10:14:35.368Z,24.60
2022-08-24T10:17:10.942Z,24.62
2022-08-24T10:19:56.140Z,24.65
2022-08-24T10:22:37.622Z,24.64
2022-08-24T10:25:20.914Z,24.66
2022-08-24T10:27:57.040Z,24.63
2022-08-24T10:30:56.482Z,24.69
2022-08-24T10:33:28.304Z,24.72
2022-08-24T10:36:28.628Z,24.79
2022-08-24T10:39:33.978Z,24.87
2022-08-24T10:42:54.737Z,24.87
2022-08-24T10:45:42.614Z,24.85
2022-08-24T10:48:41.372Z,25.03
2022-08-24T10:51:24.595Z,25.11
2022-08-24T10:53:54.590Z,25.09
2022-08-24T10:56:31.487Z,25.15
2022-08-24T10:59:08.194Z,25.05
2022-08-24T11:01:38.667Z,25.08
2022-08-24T11:04:10.537Z,25.20
2022-08-24T11:06:42.062Z,25.22
2022-08-24T11:09:19.177Z,25.06
2022-08-24T11:11:50.032Z,25.13
2022-08-24T11:14:26.572Z,25.21
2022-08-24T11:16:57.666Z,25.09
2022-08-24T11:19:34.958Z,25.25
2022-08-24T11:22:07.353Z,25.13
2022-08-24T11:24:47.579Z,25.26
2022-08-24T11:27:31.451Z,25.36
2022-08-24T11:30:02.480Z,25.31
2022-08-24T11:32:34.702Z,25.33
2022-08-24T11:35:06.547Z,25.37
2022-08-24T11:37:38.601Z,25.42
2022-08-24T11:40:08.044Z,25.46
2022-08-24T11:42:46.228Z,25.50
2022-08-24T11:45:20.975Z,25.43
2022-08-24T11:47:59.897Z,25.56
2022-08-24T11:50:34.103Z,25.50
2022-08-24T11:53:13.323Z,25.61
2022-08-24T11:55:51.639Z,25.66
2022-08-24T11:58:46.227Z,25.57
2022-08-24T12:01:20.517Z,25.63
2022-08-24T12:04:02.775Z,25.72
2022-08-24T12:06:44.363Z,25.78
2022-08-24T12:09:25.183Z,25.83
2022-08-24T12:12:00.269Z,25.76
2022-08-24T12:14:38.306Z,25.80
2022-08-24T12:17:16.773Z,25.85
2022-08-24T12:19:49.641Z,25.90
2022-08-24T12:22:20.713Z,25.92
2022-08-24T12:24:52.380Z,26.00
2022-08-24T12:27:24.508Z,26.02
2022-08-24T12:30:00.412Z,26.09
2022-08-24T12:32:37.556Z,26.07
2022-08-24T12:35:10.169Z,26.01
2022-08-24T12:37:43.677Z,26.14
2022-08-24T12:40:27.549Z,26.11
2022-08-24T12:43:00.010Z,26.04
2022-08-24T12:45:29.966Z,26.24
2022-08-24T12:48:03.853Z,26.19
2022-08-24T12:50:40.958Z,26.30
2022-08-24T12:53:42.385Z,26.41
2022-08-24T12:56:35.051Z,26.46
2022-08-24T12:59:08.397Z,26.41
2022-08-24T13:01:41.916Z,26.23
2022-08-24T13:04:19.531Z,26.23
2022-08-24T13:06:55.295Z,26.33
2022-08-24T13:09:33.335Z,26.29
2022-08-24T13:12:42.126Z,26.31
2022-08-24T13:15:55.622Z,26.48
2022-08-24T13:18:52.187Z,26.48
2022-08-24T13:21:39.688Z,26.43
2022-08-24T13:24:51.271Z,26.40
2022-08-24T13:28:06.872Z,26.47
2022-08-24T13:31:04.188Z,26.51
2022-08-24T13:33:37.295Z,26.51
2022-08-24T13:36:34.137Z,26.53
2022-08-24T13:39:11.355Z,26.44
2022-08-24T13:41:54.056Z,26.51
2022-08-24T13:44:38.952Z,26.46
2022-08-24T13:47:16.762Z,26.53
2022-08-24T13:50:01.878Z,26.46
2022-08-24T13:52:40.223Z,26.61
2022-08-24T13:55:31.626Z,26.51
2022-08-24T13:58:13.946Z,26.58
2022-08-24T14:00:51.899Z,26.62
2022-08-24T14:03:52.768Z,26.49
2022-08-24T14:06:41.339Z,26.60
2022-08-24T14:09:23.598Z,26.48
2022-08-24T14:12:07.424Z,26.50
2022-08-24T14:15:04.060Z,26.58
2022-08-24T14:17:55.022Z,26.54
2022-08-24T14:20:40.709Z,26.53
2022-08-24T14:23:23.110Z,26.61
2022-08-24T14:25:51.879Z,26.60
2022-08-24T14:28:40.383Z,26.56
2022-08-24T14:31:20.843Z,26.59
2022-08-24T14:34:09.647Z,26.58
2022-08-24T14:36:49.283Z,26.58
2022-08-24T14:39:35.835Z,26.54
2022-08-24T14:42:16.739Z,26.59
2022-08-24T14:45:02.375Z,26.59
2022-08-24T14:47:44.332Z,26.64
2022-08-24T14:50:16.076Z,26.52
2022-08-24T14:52:54.876Z,26.51
2022-08-24T14:55:31.276Z,26.51
2022-08-24T14:58:09.156Z,26.53
2022-08-24T15:00:53.987Z,26.63
2022-08-24T15:03:44.670Z,26.55
2022-08-24T15:06:27.839Z,26.60
2022-08-24T15:09:08.931Z,26.47
2022-08-24T15:11:39.158Z,26.45
2022-08-24T15:14:09.690Z,26.50
2022-08-24T15:16:53.254Z,26.49
2022-08-24T15:19:28.711Z,26.45
2022-08-24T15:22:03.759Z,26.49
2022-08-24T15:24:41.320Z,26.39
2022-08-24T15:27:20.352Z,26.43
2022-08-24T15:29:52.976Z,26.48
2022-08-24T15:32:21.649Z,26.42
2022-08-24T15:34:58.282Z,26.41
2022-08-24T15:37:31.542Z,26.35
2022-08-24T15:40:00.345Z,26.42
2022-08-24T15:42:31.251Z,26.37
2022-08-24T15:45:02.504Z,26.31
2022-08-24T15:47:33.960Z,26.35
2022-08-24T15:50:04.096Z,26.39
2022-08-24T15:52:47.914Z,26.36
2022-08-24T15:55:36.223Z,26.25
2022-08-24T15:58:28.334Z,26.33
2022-08-24T16:01:19.583Z,26.30
2022-08-24T16:03:51.329Z,26.27
2022-08-24T16:06:26.006Z,26.22
2022-08-24T16:09:02.563Z,26.16
2022-08-24T16:11:34.906Z,26.12
2022-08-24T16:14:03.754Z,26.08
2022-08-24T16:16:37.907Z,26.05
2022-08-24T16:19:08.752Z,25.99
2022-08-24T16:21:39.213Z,25.98
2022-08-24T16:24:13.443Z,25.98
2022-08-24T16:26:58.146Z,25.99
2022-08-24T16:29:55.628Z,25.94
2022-08-24T16:32:33.743Z,25.90
2022-08-24T16:35:19.592Z,25.91
2022-08-24T16:37:47.492Z,25.87
2022-08-24T16:40:17.382Z,25.87
2022-08-24T16:42:46.060Z,25.85
2022-08-24T16:45:18.404Z,25.86
2022-08-24T16:47:46.961Z,25.82
2022-08-24T16:50:16.479Z,25.84
2022-08-24T16:52:44.368Z,25.83
2022-08-24T16:55:14.498Z,25.80
2022-08-24T16:57:44.961Z,25.74
2022-08-24T17:00:17.357Z,25.71
2022-08-24T17:02:46.586Z,25.67
2022-08-24T17:05:15.594Z,25.65
2022-08-24T17:07:44.105Z,25.64
2022-08-24T17:10:15.406Z,25.59
2022-08-24T17:12:45.028Z,25.57
2022-08-24T17:15:16.110Z,25.54
2022-08-24T17:17:49.144Z,25.51
2022-08-24T17:20:17.138Z,25.48
2022-08-24T17:22:45.105Z,25.46
2022-08-24T17:25:13.684Z,25.44
2022-08-24T17:27:42.182Z,25.41
2022-08-24T17:30:16.546Z,25.38
2022-08-24T17:32:44.948Z,25.36
2022-08-24T17:35:12.871Z,25.34
2022-08-24T17:37:41.146Z,25.29
2022-08-24T17:40:14.171Z,25.25
2022-08-24T17:42:51.850Z,25.23
2022-08-24T17:45:23.163Z,25.18
2022-08-24T17:47:52.602Z,25.14
2022-08-24T17:50:24.189Z,25.09
2022-08-24T17:52:58.836Z,25.06
2022-08-24T17:55:29.050Z,25.02
2022-08-24T17:57:57.097Z,24.99
2022-08-24T18:00:26.692Z,24.95
2022-08-24T18:02:54.586Z,24.92
2022-08-24T18:05:22.670Z,24.87
2022-08-24T18:07:54.478Z,24.83
2022-08-24T18:10:25.921Z,24.79
2022-08-24T18:12:54.325Z,24.75
2022-08-24T18:15:30.105Z,24.68
2022-08-24T18:18:08.776Z,24.62
2022-08-24T18:20:39.880Z,24.59
2022-08-24T18:23:11.375Z,24.54
2022-08-24T18:25:44.793Z,24.49
2022-08-24T18:28:13.184Z,24.44
2022-08-24T18:30:41.844Z,24.38
2022-08-24T18:33:13.396Z,24.34
2022-08-24T18:35:41.526Z,24.29
2022-08-24T18:38:09.690Z,24.23
2022-08-24T18:40:38.074Z,24.19
2022-08-24T18:43:06.746Z,24.17
2022-08-24T18:45:36.034Z,24.11
2022-08-24T18:48:04.519Z,24.04
2022-08-24T18:50:37.752Z,24.01
2022-08-24T18:53:09.016Z,23.96
2022-08-24T18:55:38.639Z,23.93
2022-08-24T18:58:07.485Z,23.88
2022-08-24T19:00:35.546Z,23.85
2022-08-24T19:03:07.319Z,23.79
2022-08-24T19:05:38.309Z,23.75
2022-08-24T19:08:06.497Z,23.72
2022-08-24T19:10:37.201Z,23.66
2022-08-24T19:13:08.974Z,23.63
2022-08-24T19:15:40.346Z,23.56
2022-08-24T19:18:09.745Z,23.52
2022-08-24T19:20:48.075Z,23.48
2022-08-24T19:23:21.133Z,23.45
2022-08-24T19:25:50.028Z,23.42
2022-08-24T19:28:18.098Z,23.34
2022-08-24T19:30:46.968Z,23.34
2022-08-24T19:33:20.387Z,23.27
2022-08-24T19:35:51.952Z,23.23
2022-08-24T19:38:23.358Z,23.22
2022-08-24T19:40:54.458Z,23.17
2022-08-24T19:43:23.778Z,23.13
2022-08-24T19:46:03.244Z,23.10
2022-08-24T19:48:31.862Z,23.02
2022-08-24T19:51:03.417Z,23.01
2022-08-24T19:53:45.372Z,22.97
2022-08-24T19:56:37.545Z,22.92
2022-08-24T19:59:24.626Z,22.90
2022-08-24T20:01:53.507Z,22.82
2022-08-24T20:04:21.482Z,22.78
2022-08-24T20:06:50.825Z,22.76
2022-08-24T20:09:21.802Z,22.72
2022-08-24T20:11:51.525Z,22.69
2022-08-24T20:14:19.453Z,22.66
2022-08-24T20:16:47.431Z,22.63
2022-08-24T20:19:15.347Z,22.59
2022-08-24T20:21:43.303Z,22.55
2022-08-24T20:24:12.618Z,22.55
2022-08-24T20:26:43.585Z,22.49
2022-08-24T20:29:12.519Z,22.48
2022-08-24T20:31:41.337Z,22.45
2022-08-24T20:34:09.251Z,22.43
2022-08-24T20:36:39.481Z,22.39
2022-08-24T20:39:13.670Z,22.34
2022-08-24T20:41:41.727Z,22.32
2022-08-24T20:44:10.236Z,22.28
2022-08-24T20:46:39.436Z,22.24
2022-08-24T20:49:08.242Z,22.21
2022-08-24T20:51:43.219Z,22.17
2022-08-24T20:54:14.666Z,22.11
2022-08-24T20:56:44.640Z,22.07
2022-08-24T20:59:14.280Z,22.00
2022-08-24T21:01:43.481Z,21.97
2022-08-24T21:04:11.886Z,21.95
2022-08-24T21:06:41.490Z,21.89
2022-08-24T21:09:12.703Z,21.89
2022-08-24T21:11:46.232Z,21.85
2022-08-24T21:14:14.187Z,21.86
2022-08-24T21:16:44.313Z,21.83
2022-08-24T21:19:17.493Z,21.83
2022-08-24T21:21:46.818Z,21.80
2022-08-24T21:24:15.459Z,21.79
2022-08-24T21:26:44.961Z,21.74
2022-08-24T21:29:12.810Z,21.71
2022-08-24T21:31:42.434Z,21.67
2022-08-24T21:34:28.117Z,21.63
2022-08-24T21:36:56.110Z,21.62
2022-08-24T21:39:24.013Z,21.60
2022-08-24T21:41:53.437Z,21.55
2022-08-24T21:44:21.287Z,21.50
2022-08-24T21:46:51.867Z,21.51
2022-08-24T21:49:20.111Z,21.49
2022-08-24T21:51:48.112Z,21.46
2022-08-24T21:54:16.067Z,21.40
2022-08-24T21:56:43.937Z,21.43
2022-08-24T21:59:13.656Z,21.40
2022-08-24T22:01:41.894Z,21.34
2022-08-24T22:04:09.808Z,21.29
2022-08-24T22:06:38.075Z,21.29
2022-08-24T22:09:07.282Z,21.25
2022-08-24T22:11:35.514Z,21.23
2022-08-24T22:14:04.767Z,21.19
2022-08-24T22:16:37.167Z,21.13
2022-08-24T22:19:05.753Z,21.09
2022-08-24T22:21:35.768Z,21.07
2022-08-24T22:24:04.876Z,21.03
2022-08-24T22:26:32.824Z,21.01
2022-08-24T22:29:01.676Z,21.00
2022-08-24T22:31:31.973Z,20.96
2022-08-24T22:34:03.736Z,20.95
2022-08-24T22:36:31.622Z,20.94
2022-08-24T22:39:00.102Z,20.94
2022-08-24T22:41:29.394Z,20.86
2022-08-24T22:44:15.533Z,20.81
2022-08-24T22:46:43.926Z,20.81
2022-08-24T22:49:13.590Z,20.80
2022-08-24T22:51:42.199Z,20.81
2022-08-24T22:54:11.328Z,20.76
2022-08-24T22:56:42.157Z,20.69
2022-08-24T22:59:14.720Z,20.62
2022-08-24T23:01:45.763Z,20.61
2022-08-24T23:04:18.255Z,20.62
2022-08-24T23:06:46.347Z,20.52
2022-08-24T23:09:14.390Z,20.47
2022-08-24T23:11:42.609Z,20.46
2022-08-24T23:14:14.574Z,20.45
2022-08-24T23:16:47.689Z,20.38
2022-08-24T23:19:36.143Z,20.36
2022-08-24T23:22:05.594Z,20.35
2022-08-24T23:24:34.075Z,20.33
2022-08-24T23:27:03.050Z,20.33
2022-08-24T23:29:33.565Z,20.33
2022-08-24T23:32:01.864Z,20.31
2022-08-24T23:34:31.846Z,20.30
2022-08-24T23:37:00.148Z,20.25
2022-08-24T23:39:28.795Z,20.19
2022-08-24T23:41:57.059Z,20.16
2022-08-24T23:44:28.481Z,20.15
2022-08-24T23:46:57.996Z,20.17
2022-08-24T23:49:28.109Z,20.19
2022-08-24T23:51:59.571Z,20.09
2022-08-24T23:54:28.248Z,20.10
2022-08-24T23:56:57.505Z,20.09
2022-08-24T23:59:29.328Z,20.05
